createdAt,value
2022-11-09T00:02:24.748Z,93991.03
2022-11-09T00:04:51.377Z,93972.53
2022-11-09T00:07:18.558Z,93984.00
2022-11-09T00:09:45.458Z,93981.06
2022-11-09T00:12:13.018Z,93984.66
2022-11-09T00:14:40.029Z,93989.31
2022-11-09T00:17:06.734Z,93990.50
2022-11-09T00:19:33.542Z,93988.47
2022-11-09T00:22:00.455Z,93997.44
2022-11-09T00:24:27.169Z,93995.72
2022-11-09T00:26:54.403Z,93985.34
2022-11-09T00:29:21.526Z,93996.97
2022-11-09T00:31:49.964Z,93991.13
2022-11-09T00:34:17.400Z,93996.25
2022-11-09T00:36:44.213Z,93995.84
2022-11-09T00:39:11.051Z,93988.91
2022-11-09T00:41:38.843Z,93986.75
2022-11-09T00:44:05.647Z,93991.31
2022-11-09T00:46:32.684Z,93974.56
2022-11-09T00:48:59.755Z,93978.84
2022-11-09T00:51:26.493Z,93985.91
2022-11-09T00:53:54.770Z,93984.84
2022-11-09T00:56:22.462Z,93980.44
2022-11-09T00:58:55.839Z,93979.13
2022-11-09T01:01:23.252Z,93976.00
2022-11-09T01:03:49.947Z,93985.44
2022-11-09T01:06:20.382Z,93981.59
2022-11-09T01:08:47.618Z,93981.63
2022-11-09T01:11:16.535Z,93984.63
2022-11-09T01:13:43.300Z,93987.03
2022-11-09T01:16:19.929Z,93982.81
2022-11-09T01:18:47.383Z,93989.69
2022-11-09T01:21:16.188Z,93987.66
2022-11-09T01:23:43.238Z,93986.75
2022-11-09T01:26:12.769Z,93975.13
2022-11-09T01:28:39.821Z,93976.41
2022-11-09T01:31:10.114Z,93975.53
2022-11-09T01:33:37.270Z,93975.22
2022-11-09T01:36:09.518Z,93976.94
2022-11-09T01:38:37.860Z,93980.38
2022-11-09T01:41:06.234Z,93980.94
2022-11-09T01:43:35.028Z,93973.59
2022-11-09T01:46:26.095Z,93979.13
2022-11-09T01:48:59.841Z,93973.84
2022-11-09T01:51:38.776Z,93979.22
2022-11-09T01:54:11.854Z,93964.03
2022-11-09T01:56:40.076Z,93975.50
2022-11-09T01:59:11.897Z,93967.81
2022-11-09T02:01:38.621Z,93972.03
2022-11-09T02:04:20.838Z,93959.31
2022-11-09T02:06:48.622Z,93966.03
2022-11-09T02:09:26.675Z,93970.19
2022-11-09T02:11:53.718Z,93964.16
2022-11-09T02:14:23.388Z,93950.88
2022-11-09T02:16:50.148Z,93947.97
2022-11-09T02:19:16.850Z,93936.81
2022-11-09T02:21:43.684Z,93938.13
2022-11-09T02:24:11.685Z,93944.53
2022-11-09T02:27:06.009Z,93946.59
2022-11-09T02:29:37.163Z,93937.81
2022-11-09T02:32:09.992Z,93940.19
2022-11-09T02:34:37.053Z,93939.72
2022-11-09T02:37:03.794Z,93930.19
2022-11-09T02:39:31.490Z,93933.78
2022-11-09T02:42:13.714Z,93938.19
2022-11-09T02:44:47.391Z,93943.53
2022-11-09T02:47:14.053Z,93935.22
2022-11-09T02:49:42.509Z,93938.97
2022-11-09T02:52:09.308Z,93948.38
2022-11-09T02:54:36.241Z,93935.22
2022-11-09T02:57:04.583Z,93944.47
2022-11-09T02:59:32.513Z,93943.53
2022-11-09T03:01:59.624Z,93931.91
2022-11-09T03:04:29.307Z,93940.34
2022-11-09T03:06:56.101Z,93931.28
2022-11-09T03:09:23.000Z,93946.47
2022-11-09T03:11:50.664Z,93939.56
2022-11-09T03:14:17.673Z,93945.50
2022-11-09T03:16:50.942Z,93936.09
2022-11-09T03:19:18.479Z,93931.22
2022-11-09T03:21:47.423Z,93942.69
2022-11-09T03:24:14.057Z,93940.59
2022-11-09T03:26:41.729Z,93944.97
2022-11-09T03:29:09.163Z,93950.00
2022-11-09T03:31:36.320Z,93945.31
2022-11-09T03:34:06.087Z,93950.16
2022-11-09T03:36:35.403Z,93955.34
2022-11-09T03:39:02.123Z,93954.72
2022-11-09T03:41:28.915Z,93950.94
2022-11-09T03:43:55.701Z,93949.06
2022-11-09T03:46:22.380Z,93951.09
2022-11-09T03:48:49.015Z,93951.25
2022-11-09T03:51:15.674Z,93954.38
2022-11-09T03:53:42.302Z,93945.69
2022-11-09T03:56:08.997Z,93966.25
2022-11-09T03:58:35.685Z,93956.53
2022-11-09T04:01:02.472Z,93955.56
2022-11-09T04:03:29.108Z,93953.69
2022-11-09T04:05:58.678Z,93965.78
2022-11-09T04:08:25.666Z,93974.97
2022-11-09T04:10:52.636Z,93958.78
2022-11-09T04:13:19.548Z,93958.19
2022-11-09T04:15:46.381Z,93965.94
2022-11-09T04:18:15.287Z,93971.81
2022-11-09T04:20:42.759Z,93974.81
2022-11-09T04:23:14.427Z,93960.41
2022-11-09T04:25:42.250Z,93973.50
2022-11-09T04:28:17.913Z,93970.31
2022-11-09T04:30:44.593Z,93961.75
2022-11-09T04:33:11.307Z,93969.00
2022-11-09T04:35:38.579Z,93987.66
2022-11-09T04:38:07.441Z,93971.94
2022-11-09T04:40:35.418Z,93989.50
2022-11-09T04:43:04.393Z,93989.22
2022-11-09T04:45:33.895Z,93982.25
2022-11-09T04:48:02.235Z,93977.00
2022-11-09T04:50:29.756Z,93989.56
2022-11-09T04:53:07.781Z,94004.28
2022-11-09T04:55:35.530Z,94002.91
2022-11-09T04:58:02.318Z,94012.09
2022-11-09T05:00:29.167Z,94012.25
2022-11-09T05:02:55.829Z,94006.56
2022-11-09T05:05:22.519Z,94020.66
2022-11-09T05:07:49.154Z,94015.81
2022-11-09T05:10:15.821Z,94039.31
2022-11-09T05:12:45.820Z,94035.97
2022-11-09T05:15:12.842Z,94028.75
2022-11-09T05:17:39.533Z,94040.00
2022-11-09T05:20:06.719Z,94019.97
2022-11-09T05:22:51.894Z,94029.31
2022-11-09T05:25:18.556Z,94018.72
2022-11-09T05:27:45.181Z,94025.59
2022-11-09T05:30:12.262Z,94017.22
2022-11-09T05:32:40.049Z,94027.88
2022-11-09T05:35:07.287Z,94024.50
2022-11-09T05:37:33.920Z,94029.88
2022-11-09T05:40:00.834Z,94026.88
2022-11-09T05:42:27.516Z,94027.31
2022-11-09T05:44:55.675Z,94039.59
2022-11-09T05:47:22.581Z,94036.59
2022-11-09T05:49:49.689Z,94047.25
2022-11-09T05:52:16.348Z,94034.50
2022-11-09T05:54:43.118Z,94042.22
2022-11-09T05:57:09.850Z,94028.25
2022-11-09T05:59:36.496Z,94048.25
2022-11-09T06:02:03.416Z,94056.63
2022-11-09T06:04:30.106Z,94050.47
2022-11-09T06:06:56.935Z,94046.38
2022-11-09T06:09:23.606Z,94037.06
2022-11-09T06:11:50.768Z,94051.59
2022-11-09T06:14:17.362Z,94042.69
2022-11-09T06:16:44.066Z,94035.75
2022-11-09T06:19:10.753Z,94037.00
2022-11-09T06:21:37.950Z,94044.75
2022-11-09T06:24:04.716Z,94039.72
2022-11-09T06:26:31.376Z,94038.63
2022-11-09T06:28:57.996Z,94043.06
2022-11-09T06:31:24.620Z,94050.91
2022-11-09T06:33:51.363Z,94046.19
2022-11-09T06:36:18.518Z,94044.31
2022-11-09T06:38:48.871Z,94043.53
2022-11-09T06:41:16.047Z,94037.72
2022-11-09T06:43:43.311Z,94046.06
2022-11-09T06:46:11.037Z,94043.56
2022-11-09T06:48:41.085Z,94054.41
2022-11-09T06:51:07.741Z,94062.44
2022-11-09T06:53:35.069Z,94058.00
2022-11-09T06:56:03.343Z,94061.34
2022-11-09T06:58:31.102Z,94065.13
2022-11-09T07:00:58.348Z,94059.44
2022-11-09T07:03:25.540Z,94052.06
2022-11-09T07:05:53.346Z,94055.34
2022-11-09T07:08:20.133Z,94056.38
2022-11-09T07:10:46.794Z,94058.75
2022-11-09T07:13:13.573Z,94055.84
2022-11-09T07:15:40.588Z,94064.59
2022-11-09T07:18:10.128Z,94060.94
2022-11-09T07:20:37.408Z,94065.88
2022-11-09T07:23:04.078Z,94064.03
2022-11-09T07:25:32.144Z,94053.84
2022-11-09T07:28:07.674Z,94074.47
2022-11-09T07:30:35.267Z,94078.63
2022-11-09T07:33:20.514Z,94081.41
2022-11-09T07:35:47.356Z,94076.97
2022-11-09T07:38:15.766Z,94082.44
2022-11-09T07:40:42.892Z,94076.09
2022-11-09T07:43:11.151Z,94085.38
2022-11-09T07:45:39.198Z,94084.13
2022-11-09T07:48:08.891Z,94094.97
2022-11-09T07:50:36.779Z,94098.91
2022-11-09T07:53:03.577Z,94090.91
2022-11-09T07:55:30.539Z,94099.69
2022-11-09T07:58:01.655Z,94089.16
2022-11-09T08:00:30.553Z,94086.50
2022-11-09T08:02:57.419Z,94084.25
2022-11-09T08:05:24.404Z,94097.56
2022-11-09T08:07:56.146Z,94095.56
2022-11-09T08:10:23.465Z,94099.16
2022-11-09T08:13:00.988Z,94091.09
2022-11-09T08:15:28.267Z,94094.22
2022-11-09T08:17:58.386Z,94098.38
2022-11-09T08:20:25.037Z,94115.47
2022-11-09T08:22:51.665Z,94096.13
2022-11-09T08:25:18.459Z,94103.97
2022-11-09T08:27:45.168Z,94107.53
2022-11-09T08:30:14.980Z,94101.06
2022-11-09T08:32:43.165Z,94111.09
2022-11-09T08:35:12.583Z,94111.56
2022-11-09T08:37:39.467Z,94116.91
2022-11-09T08:40:07.284Z,94110.88
2022-11-09T08:42:34.010Z,94108.97
2022-11-09T08:45:01.033Z,94113.22
2022-11-09T08:47:28.884Z,94118.25
2022-11-09T08:49:55.991Z,94123.63
2022-11-09T08:52:23.010Z,94137.16
2022-11-09T08:54:49.954Z,94141.75
2022-11-09T08:57:18.907Z,94141.75
2022-11-09T08:59:46.557Z,94152.16
2022-11-09T09:02:14.582Z,94151.03
2022-11-09T09:04:41.747Z,94156.41
2022-11-09T09:07:08.779Z,94152.28
2022-11-09T09:09:37.981Z,94159.56
2022-11-09T09:12:07.159Z,94161.91
2022-11-09T09:14:34.198Z,94167.16
2022-11-09T09:17:01.411Z,94167.50
2022-11-09T09:19:28.674Z,94166.03
2022-11-09T09:21:55.486Z,94169.63
2022-11-09T09:24:22.242Z,94169.16
2022-11-09T09:26:49.065Z,94173.72
2022-11-09T09:29:16.544Z,94155.09
2022-11-09T09:31:43.303Z,94163.34
2022-11-09T09:34:11.855Z,94168.97
2022-11-09T09:36:43.298Z,94169.19
2022-11-09T09:39:13.173Z,94175.25
2022-11-09T09:41:49.248Z,94169.44
2022-11-09T09:44:41.228Z,94166.31
2022-11-09T09:47:33.494Z,94176.38
2022-11-09T09:50:10.246Z,94168.06
2022-11-09T09:53:23.081Z,94169.75
2022-11-09T09:55:56.256Z,94175.34
2022-11-09T09:58:27.111Z,94177.56
2022-11-09T10:01:00.008Z,94171.09
2022-11-09T10:03:26.809Z,94171.56
2022-11-09T10:06:11.740Z,94186.97
2022-11-09T10:08:41.456Z,94178.97
2022-11-09T10:11:20.814Z,94170.63
2022-11-09T10:13:56.275Z,94175.94
2022-11-09T10:16:26.224Z,94167.38
2022-11-09T10:19:32.216Z,94163.91
2022-11-09T10:22:26.959Z,94153.41
2022-11-09T10:26:02.415Z,94138.69
2022-11-09T10:28:26.435Z,94146.91
2022-11-09T10:30:53.443Z,94133.72
2022-11-09T10:33:21.763Z,94136.94
2022-11-09T10:36:18.749Z,94128.78
2022-11-09T10:38:49.740Z,94125.75
2022-11-09T10:41:41.207Z,94116.72
2022-11-09T10:44:26.587Z,94114.13
2022-11-09T10:47:16.841Z,94115.50
2022-11-09T10:50:17.596Z,94109.31
2022-11-09T10:53:11.262Z,94104.81
2022-11-09T10:56:20.320Z,94110.13
2022-11-09T10:59:37.682Z,94088.34
2022-11-09T11:02:26.227Z,94102.22
2022-11-09T11:05:21.286Z,94106.72
2022-11-09T11:08:31.987Z,94096.41
2022-11-09T11:11:38.807Z,94100.56
2022-11-09T11:14:33.892Z,94101.69
2022-11-09T11:17:27.730Z,94101.22
2022-11-09T11:20:25.132Z,94100.47
2022-11-09T11:23:19.615Z,94101.97
2022-11-09T11:26:23.615Z,94093.03
2022-11-09T11:29:27.752Z,94095.25
2022-11-09T11:32:16.103Z,94088.59
2022-11-09T11:35:02.207Z,94092.94
2022-11-09T11:37:56.759Z,94096.53
2022-11-09T11:41:02.961Z,94104.88
2022-11-09T11:44:11.205Z,94097.97
2022-11-09T11:47:08.588Z,94093.91
2022-11-09T11:50:27.784Z,94088.22
2022-11-09T11:53:31.383Z,94083.91
2022-11-09T11:56:31.569Z,94088.72
2022-11-09T11:59:28.921Z,94073.97
2022-11-09T12:02:26.105Z,94080.38
2022-11-09T12:05:11.631Z,94072.91
2022-11-09T12:08:20.632Z,94071.00
2022-11-09T12:11:18.578Z,94073.41
2022-11-09T12:14:16.339Z,94075.69
2022-11-09T12:17:15.867Z,94072.56
2022-11-09T12:20:25.243Z,94071.06
2022-11-09T12:23:23.089Z,94071.91
2022-11-09T12:26:25.842Z,94060.19
2022-11-09T12:29:22.071Z,94064.34
2022-11-09T12:32:34.971Z,94061.28
2022-11-09T12:35:24.673Z,94058.47
2022-11-09T12:38:25.139Z,94062.91
2022-11-09T12:41:17.416Z,94056.50
2022-11-09T12:44:18.504Z,94057.81
2022-11-09T12:47:10.266Z,94044.63
2022-11-09T12:49:56.504Z,94042.47
2022-11-09T12:52:42.698Z,94041.00
2022-11-09T12:55:54.593Z,94048.03
2022-11-09T12:58:39.969Z,94048.53
2022-11-09T13:01:34.621Z,94044.88
2022-11-09T13:04:22.190Z,94042.31
2022-11-09T13:07:14.015Z,94044.22
2022-11-09T13:10:01.905Z,94041.03
2022-11-09T13:12:47.147Z,94035.09
2022-11-09T13:15:34.497Z,94036.88
2022-11-09T13:18:35.434Z,94031.19
2022-11-09T13:21:21.291Z,94044.13
2022-11-09T13:24:29.855Z,94040.88
2022-11-09T13:27:35.794Z,94041.66
2022-11-09T13:30:24.692Z,94039.00
2022-11-09T13:33:20.313Z,94035.13
2022-11-09T13:36:09.444Z,94040.16
2022-11-09T13:39:22.604Z,94050.56
2022-11-09T13:42:28.401Z,94038.09
2022-11-09T13:45:28.115Z,94039.94
2022-11-09T13:48:31.920Z,94038.53
2022-11-09T13:51:20.731Z,94038.91
2022-11-09T13:54:26.245Z,94039.59
2022-11-09T13:57:11.249Z,94036.81
2022-11-09T13:59:59.414Z,94042.66
2022-11-09T14:02:53.618Z,94048.19
2022-11-09T14:05:39.443Z,94043.78
2022-11-09T14:08:30.677Z,94043.63
2022-11-09T14:11:36.981Z,94050.88
2022-11-09T14:14:59.883Z,94055.00
2022-11-09T14:18:23.048Z,94057.63
2022-11-09T14:21:44.692Z,94057.38
2022-11-09T14:24:34.709Z,94061.03
2022-11-09T14:27:22.122Z,94064.09
2022-11-09T14:30:22.091Z,94068.97
2022-11-09T14:33:21.604Z,94075.03
2022-11-09T14:36:07.154Z,94074.97
2022-11-09T14:38:52.249Z,94082.63
2022-11-09T14:41:37.701Z,94080.22
2022-11-09T14:44:36.006Z,94083.69
2022-11-09T14:47:34.360Z,94088.91
2022-11-09T14:50:23.499Z,94099.25
2022-11-09T14:53:24.681Z,94096.38
2022-11-09T14:56:12.687Z,94092.41
2022-11-09T14:58:58.280Z,94097.69
2022-11-09T15:02:12.930Z,94099.97
2022-11-09T15:05:04.248Z,94106.38
2022-11-09T15:07:49.486Z,94097.44
2022-11-09T15:10:35.383Z,94103.09
2022-11-09T15:13:39.359Z,94095.28
2022-11-09T15:16:29.639Z,94102.47
2022-11-09T15:19:30.705Z,94102.28
2022-11-09T15:22:42.499Z,94106.03
2022-11-09T15:25:54.829Z,94112.47
2022-11-09T15:28:46.495Z,94108.44
2022-11-09T15:31:31.693Z,94113.72
2022-11-09T15:34:22.776Z,94112.06
2022-11-09T15:37:26.109Z,94124.22
2022-11-09T15:40:14.118Z,94125.34
2022-11-09T15:42:59.196Z,94130.28
2022-11-09T15:45:44.548Z,94130.97
2022-11-09T15:48:30.245Z,94132.09
2022-11-09T15:51:16.029Z,94134.69
2022-11-09T15:54:01.400Z,94127.66
2022-11-09T15:56:47.638Z,94136.50
2022-11-09T15:59:32.643Z,94142.47
2022-11-09T16:02:20.875Z,94129.72
2022-11-09T16:05:06.262Z,94138.56
2022-11-09T16:07:55.108Z,94136.56
2022-11-09T16:10:41.567Z,94147.31
2022-11-09T16:13:26.557Z,94141.50
2022-11-09T16:16:14.204Z,94153.47
2022-11-09T16:18:59.485Z,94152.25
2022-11-09T16:21:44.679Z,94149.41
2022-11-09T16:24:30.134Z,94159.06
2022-11-09T16:27:35.318Z,94145.84
2022-11-09T16:30:21.209Z,94152.38
2022-11-09T16:33:06.697Z,94163.13
2022-11-09T16:35:53.892Z,94161.13
2022-11-09T16:38:43.401Z,94159.09
2022-11-09T16:41:30.612Z,94166.72
2022-11-09T16:44:18.666Z,94173.22
2022-11-09T16:47:06.978Z,94177.72
2022-11-09T16:49:51.986Z,94175.69
2022-11-09T16:52:37.377Z,94181.41
2022-11-09T16:55:22.548Z,94182.44
2022-11-09T16:58:07.912Z,94178.09
2022-11-09T17:01:11.302Z,94178.88
2022-11-09T17:03:57.620Z,94190.84
2022-11-09T17:06:42.922Z,94190.28
2022-11-09T17:09:28.176Z,94198.22
2022-11-09T17:12:14.274Z,94200.59
2022-11-09T17:14:59.405Z,94205.84
2022-11-09T17:17:44.732Z,94210.44
2022-11-09T17:20:30.107Z,94210.66
2022-11-09T17:23:18.483Z,94213.78
2022-11-09T17:26:06.790Z,94212.03
2022-11-09T17:28:52.643Z,94219.19
2022-11-09T17:31:38.428Z,94224.56
2022-11-09T17:34:23.442Z,94231.72
2022-11-09T17:37:08.739Z,94236.19
2022-11-09T17:39:53.834Z,94233.38
2022-11-09T17:42:39.227Z,94241.75
2022-11-09T17:45:24.378Z,94244.81
2022-11-09T17:48:09.632Z,94251.84
2022-11-09T17:50:57.408Z,94260.69
2022-11-09T17:53:42.893Z,94259.56
2022-11-09T17:56:28.216Z,94266.50
2022-11-09T17:59:13.248Z,94275.13
2022-11-09T18:01:58.999Z,94278.38
2022-11-09T18:04:44.669Z,94275.63
2022-11-09T18:07:31.116Z,94278.22
2022-11-09T18:10:16.234Z,94276.66
2022-11-09T18:13:02.816Z,94279.00
2022-11-09T18:15:47.976Z,94281.56
2022-11-09T18:18:33.436Z,94285.03
2022-11-09T18:21:19.672Z,94285.50
2022-11-09T18:24:05.363Z,94289.31
2022-11-09T18:26:50.516Z,94288.84
2022-11-09T18:29:35.764Z,94290.09
2022-11-09T18:32:20.910Z,94278.75
2022-11-09T18:35:07.049Z,94286.16
2022-11-09T18:37:52.246Z,94292.66
2022-11-09T18:40:37.678Z,94289.84
2022-11-09T18:43:22.999Z,94281.97
2022-11-09T18:46:10.777Z,94282.66
2022-11-09T18:48:55.744Z,94277.94
2022-11-09T18:51:41.442Z,94290.25
2022-11-09T18:54:26.790Z,94297.19
2022-11-09T18:57:15.930Z,94290.25
2022-11-09T19:00:05.588Z,94285.09
2022-11-09T19:02:51.041Z,94286.22
2022-11-09T19:05:39.835Z,94283.53
2022-11-09T19:08:43.969Z,94286.66
2022-11-09T19:11:30.234Z,94289.34
2022-11-09T19:14:15.600Z,94288.91
2022-11-09T19:17:00.648Z,94301.53
2022-11-09T19:19:45.948Z,94295.50
2022-11-09T19:22:31.470Z,94298.19
2022-11-09T19:25:16.590Z,94303.56
2022-11-09T19:28:01.806Z,94310.38
2022-11-09T19:30:47.167Z,94314.94
2022-11-09T19:33:32.497Z,94314.38
2022-11-09T19:36:34.847Z,94320.66
2022-11-09T19:39:20.719Z,94324.19
2022-11-09T19:42:06.342Z,94331.13
2022-11-09T19:44:56.249Z,94339.28
2022-11-09T19:47:42.373Z,94339.63
2022-11-09T19:50:27.503Z,94342.50
2022-11-09T19:53:12.870Z,94349.94
2022-11-09T19:55:59.937Z,94347.16
2022-11-09T19:58:50.582Z,94350.50
2022-11-09T20:01:35.702Z,94349.91
2022-11-09T20:04:20.883Z,94354.81
2022-11-09T20:07:06.682Z,94350.88
2022-11-09T20:09:52.051Z,94357.34
2022-11-09T20:12:54.635Z,94351.53
2022-11-09T20:15:40.138Z,94354.22
2022-11-09T20:18:25.509Z,94359.09
2022-11-09T20:21:10.779Z,94361.94
2022-11-09T20:23:56.317Z,94369.97
2022-11-09T20:26:43.486Z,94375.81
2022-11-09T20:29:28.328Z,94377.38
2022-11-09T20:32:14.790Z,94377.50
2022-11-09T20:35:02.111Z,94379.72
2022-11-09T20:37:47.304Z,94384.00
2022-11-09T20:40:32.594Z,94385.09
2022-11-09T20:43:17.903Z,94399.28
2022-11-09T20:46:08.681Z,94404.97
2022-11-09T20:48:55.582Z,94404.66
2022-11-09T20:51:41.540Z,94411.81
2022-11-09T20:54:26.528Z,94405.38
2022-11-09T20:57:12.071Z,94415.19
2022-11-09T20:59:57.390Z,94409.34
2022-11-09T21:02:43.161Z,94402.88
2022-11-09T21:05:28.616Z,94422.59
2022-11-09T21:08:13.723Z,94425.59
2022-11-09T21:11:04.257Z,94430.50
2022-11-09T21:13:51.023Z,94428.91
2022-11-09T21:16:36.329Z,94427.97
2022-11-09T21:19:21.926Z,94430.03
2022-11-09T21:22:07.420Z,94438.72
2022-11-09T21:25:11.498Z,94439.84
2022-11-09T21:28:15.471Z,94440.34
2022-11-09T21:31:01.905Z,94444.28
2022-11-09T21:33:46.892Z,94448.06
2022-11-09T21:36:32.082Z,94445.38
2022-11-09T21:39:17.693Z,94447.28
2022-11-09T21:42:03.399Z,94447.13
2022-11-09T21:44:48.441Z,94452.81
2022-11-09T21:47:33.699Z,94448.56
2022-11-09T21:50:19.198Z,94458.63
2022-11-09T21:53:04.569Z,94462.88
2022-11-09T21:55:49.784Z,94471.25
2022-11-09T21:58:35.168Z,94460.69
2022-11-09T22:01:21.078Z,94465.75
2022-11-09T22:04:07.381Z,94472.38
2022-11-09T22:06:52.607Z,94463.88
2022-11-09T22:10:05.968Z,94474.16
2022-11-09T22:13:01.742Z,94470.38
2022-11-09T22:16:05.547Z,94472.56
2022-11-09T22:19:09.919Z,94475.72
2022-11-09T22:21:55.112Z,94469.13
2022-11-09T22:24:43.605Z,94467.53
2022-11-09T22:27:32.692Z,94471.78
2022-11-09T22:30:17.774Z,94471.97
2022-11-09T22:33:03.155Z,94477.31
2022-11-09T22:35:59.633Z,94481.75
2022-11-09T22:38:46.412Z,94486.16
2022-11-09T22:41:32.437Z,94486.94
2022-11-09T22:44:18.078Z,94496.72
2022-11-09T22:47:04.705Z,94497.50
2022-11-09T22:49:49.716Z,94494.66
2022-11-09T22:52:35.509Z,94500.97
2022-11-09T22:55:20.849Z,94500.03
2022-11-09T22:58:06.288Z,94498.91
2022-11-09T23:00:52.232Z,94497.34
2022-11-09T23:03:38.405Z,94498.19
2022-11-09T23:06:24.224Z,94507.91
2022-11-09T23:09:09.486Z,94514.38
2022-11-09T23:11:54.957Z,94518.78
2022-11-09T23:14:58.594Z,94521.16
2022-11-09T23:18:03.646Z,94522.25
2022-11-09T23:20:49.312Z,94532.03
2022-11-09T23:23:35.308Z,94532.03
2022-11-09T23:26:22.278Z,94537.84
2022-11-09T23:29:07.208Z,94535.81
2022-11-09T23:31:52.823Z,94536.13
2022-11-09T23:34:38.408Z,94543.69
2022-11-09T23:37:24.595Z,94545.25
2022-11-09T23:40:10.573Z,94544.16
2022-11-09T23:43:07.703Z,94551.88
2022-11-09T23:45:52.845Z,94550.31
2022-11-09T23:48:38.981Z,94547.16
2022-11-09T23:51:25.453Z,94549.50
2022-11-09T23:54:10.645Z,94551.09
2022-11-09T23:56:55.869Z,94565.59
2022-11-09T23:59:41.400Z,94568.44
